Time;durP1;ratioP1;P1;durP2;ratioP2;P2;SDS_P1;SDS_P2;PMS_P1;PMS_P2;Temp;Humidity;BMP_temperature;BMP_pressure;BME280_temperature;BME280_humidity;BME280_pressure;Samples;Min_cycle;Max_cycle;Signal;HPM_P1;HPM_P2
2023/09/21 00:00:36;;;;;;;2.73;1.70;;;14.60;99.90;;;;;;467121;253;28348;-70
2023/09/21 00:02:36;;;;;;;2.50;2.07;;;14.60;99.90;;;;;;467156;253;28764;-71
2023/09/21 00:04:38;;;;;;;2.00;1.90;;;14.60;99.90;;;;;;467179;253;28458;-70
2023/09/21 00:06:39;;;;;;;2.60;2.00;;;14.60;99.90;;;;;;467150;253;29374;-70
2023/09/21 00:08:40;;;;;;;5.20;2.10;;;14.60;99.90;;;;;;467157;253;28967;-69
2023/09/21 00:10:41;;;;;;;2.20;1.87;;;14.70;99.90;;;;;;467146;253;29405;-70
2023/09/21 00:12:42;;;;;;;1.80;1.70;;;14.70;99.90;;;;;;467133;253;29042;-72
2023/09/21 00:14:44;;;;;;;3.10;1.90;;;14.70;99.90;;;;;;467156;253;28579;-69
2023/09/21 00:16:45;;;;;;;2.13;1.93;;;14.60;99.90;;;;;;467140;253;28626;-71
2023/09/21 00:18:46;;;;;;;1.90;1.70;;;14.60;99.90;;;;;;467156;253;28377;-70
2023/09/21 00:20:53;;;;;;;2.13;1.70;;;14.60;99.90;;;;;;466925;253;29018;-69
2023/09/21 00:22:55;;;;;;;2.87;1.70;;;14.60;99.90;;;;;;467145;253;28891;-69
2023/09/21 00:24:56;;;;;;;2.07;1.90;;;14.60;99.90;;;;;;467131;253;29545;-70
2023/09/21 00:26:59;;;;;;;2.43;2.00;;;14.60;99.90;;;;;;467149;253;28816;-70
2023/09/21 00:29:02;;;;;;;5.13;1.97;;;14.60;99.90;;;;;;467080;254;28547;-70
2023/09/21 00:31:02;;;;;;;2.10;1.90;;;14.50;99.90;;;;;;466970;249;28928;-70
2023/09/21 00:33:02;;;;;;;2.80;2.30;;;14.50;99.90;;;;;;467056;254;28546;-71
2023/09/21 00:35:07;;;;;;;2.07;1.87;;;14.50;99.90;;;;;;467121;254;28534;-70
2023/09/21 00:37:04;;;;;;;2.10;1.93;;;14.50;99.90;;;;;;466819;254;28462;-70
2023/09/21 00:39:09;;;;;;;3.93;2.33;;;14.50;99.90;;;;;;467179;253;28231;-71
2023/09/21 00:41:07;;;;;;;1.90;1.80;;;14.50;99.90;;;;;;466954;254;28466;-69
2023/09/21 00:43:09;;;;;;;2.20;2.00;;;14.60;99.90;;;;;;467077;253;28423;-70
2023/09/21 00:45:08;;;;;;;2.80;1.83;;;14.70;99.90;;;;;;467087;254;28984;-70
2023/09/21 00:47:10;;;;;;;2.00;1.90;;;14.60;99.90;;;;;;467157;253;28943;-70
2023/09/21 00:49:12;;;;;;;2.20;2.00;;;14.70;99.90;;;;;;467178;253;29120;-70
2023/09/21 00:51:12;;;;;;;1.90;1.80;;;14.80;99.90;;;;;;467152;253;29022;-70
2023/09/21 00:53:14;;;;;;;2.50;2.13;;;14.80;99.90;;;;;;467147;253;28600;-70
2023/09/21 00:55:16;;;;;;;3.10;1.93;;;14.90;99.90;;;;;;467099;253;28536;-69
2023/09/21 00:57:16;;;;;;;2.37;2.17;;;14.80;99.90;;;;;;467107;253;28595;-69
2023/09/21 00:59:17;;;;;;;3.70;2.00;;;14.80;99.90;;;;;;467145;253;28329;-70
2023/09/21 01:01:22;;;;;;;2.50;1.93;;;14.80;99.90;;;;;;467148;253;28427;-70
2023/09/21 01:03:20;;;;;;;1.77;1.67;;;14.80;99.90;;;;;;466911;254;28562;-69
2023/09/21 01:05:22;;;;;;;1.73;1.63;;;14.80;99.90;;;;;;467151;253;28918;-70
2023/09/21 01:07:25;;;;;;;1.73;1.60;;;14.90;99.90;;;;;;467141;253;28391;-70
2023/09/21 01:09:25;;;;;;;1.83;1.73;;;14.90;99.90;;;;;;467010;254;28999;-71
2023/09/21 01:11:25;;;;;;;1.97;1.80;;;14.90;99.90;;;;;;467023;254;29298;-69
2023/09/21 01:13:26;;;;;;;2.80;1.97;;;14.90;99.90;;;;;;467178;253;29507;-71
2023/09/21 01:15:28;;;;;;;1.77;1.67;;;14.90;99.90;;;;;;467183;253;29057;-72
2023/09/21 01:17:30;;;;;;;2.30;2.10;;;14.90;99.90;;;;;;467095;253;28603;-69
2023/09/21 01:19:30;;;;;;;3.67;1.90;;;14.90;99.90;;;;;;467105;254;28956;-70
2023/09/21 01:21:34;;;;;;;2.70;2.07;;;15.00;99.90;;;;;;467158;253;28503;-70
2023/09/21 01:23:32;;;;;;;2.00;1.73;;;15.00;99.90;;;;;;466998;254;28827;-70
2023/09/21 01:25:33;;;;;;;2.00;1.80;;;15.10;99.90;;;;;;467171;253;28947;-70
2023/09/21 01:27:35;;;;;;;2.30;1.83;;;15.10;99.90;;;;;;467144;254;28496;-70
2023/09/21 01:29:36;;;;;;;1.80;1.70;;;15.20;99.90;;;;;;467177;254;28894;-70
2023/09/21 01:31:38;;;;;;;1.80;1.70;;;15.30;99.90;;;;;;467176;253;28612;-70
2023/09/21 01:33:38;;;;;;;1.97;1.77;;;15.30;99.90;;;;;;467178;254;28819;-70
2023/09/21 01:35:40;;;;;;;2.90;2.17;;;15.50;99.90;;;;;;467160;253;29399;-71
2023/09/21 01:37:41;;;;;;;3.50;2.40;;;15.60;99.90;;;;;;467165;253;29422;-70
2023/09/21 01:39:42;;;;;;;2.30;1.80;;;15.70;99.90;;;;;;467160;253;29473;-70
2023/09/21 01:41:45;;;;;;;3.40;1.90;;;15.80;99.90;;;;;;467169;249;28962;-72
2023/09/21 01:43:45;;;;;;;2.00;1.80;;;15.90;99.90;;;;;;467213;253;28840;-71
2023/09/21 01:45:48;;;;;;;4.20;1.93;;;15.90;99.90;;;;;;467160;253;28866;-71
2023/09/21 01:47:47;;;;;;;2.20;2.00;;;15.90;99.90;;;;;;467054;254;28826;-70
2023/09/21 01:49:49;;;;;;;1.73;1.60;;;16.00;99.90;;;;;;467028;254;28855;-70
2023/09/21 01:51:52;;;;;;;1.77;1.63;;;16.00;99.90;;;;;;467091;253;28950;-71
2023/09/21 01:53:53;;;;;;;2.60;1.70;;;16.00;99.90;;;;;;467079;250;29395;-70
2023/09/21 01:55:52;;;;;;;1.90;1.80;;;16.00;99.90;;;;;;467040;254;29377;-71
2023/09/21 01:57:54;;;;;;;1.70;1.60;;;16.00;99.90;;;;;;467128;254;30054;-69
2023/09/21 01:59:56;;;;;;;1.90;1.80;;;16.10;99.90;;;;;;467146;254;29286;-70
2023/09/21 02:01:56;;;;;;;3.13;2.00;;;16.10;99.90;;;;;;467136;253;28877;-70
2023/09/21 02:03:58;;;;;;;2.03;1.80;;;16.20;99.90;;;;;;467155;253;28919;-70
2023/09/21 02:05:59;;;;;;;5.17;2.07;;;16.40;99.90;;;;;;467114;254;28866;-70
2023/09/21 02:08:00;;;;;;;1.87;1.73;;;16.40;99.90;;;;;;467129;249;28901;-70
2023/09/21 02:10:01;;;;;;;2.13;1.90;;;16.50;99.90;;;;;;467148;253;28898;-70
2023/09/21 02:12:02;;;;;;;1.80;1.70;;;16.50;99.90;;;;;;467156;253;28974;-70
2023/09/21 02:14:05;;;;;;;2.10;1.80;;;16.50;99.90;;;;;;467136;253;28854;-70
2023/09/21 02:16:05;;;;;;;2.37;1.80;;;16.60;99.90;;;;;;467109;253;28958;-72
2023/09/21 02:18:06;;;;;;;1.50;1.40;;;16.60;99.90;;;;;;467151;253;28963;-73
2023/09/21 02:20:13;;;;;;;2.20;1.70;;;16.50;99.90;;;;;;467157;253;29297;-72
2023/09/21 02:22:11;;;;;;;1.90;1.80;;;16.60;99.90;;;;;;466793;254;29418;-72
2023/09/21 02:24:10;;;;;;;2.50;2.30;;;16.70;99.90;;;;;;466989;254;29392;-72
2023/09/21 02:26:11;;;;;;;2.47;2.00;;;16.80;99.90;;;;;;467129;253;28856;-72
2023/09/21 02:28:12;;;;;;;2.70;1.90;;;16.80;99.90;;;;;;467133;253;28885;-74
2023/09/21 02:30:14;;;;;;;3.03;1.93;;;16.90;99.90;;;;;;467146;254;28835;-71
2023/09/21 02:32:15;;;;;;;2.50;2.10;;;16.90;99.90;;;;;;467125;253;28867;-73
2023/09/21 02:34:16;;;;;;;1.83;1.73;;;16.90;99.90;;;;;;467115;253;28857;-70
2023/09/21 02:36:19;;;;;;;2.60;1.70;;;16.90;99.90;;;;;;467148;253;28835;-70
2023/09/21 02:38:22;;;;;;;2.17;1.80;;;16.90;99.90;;;;;;467060;254;28954;-70
2023/09/21 02:40:20;;;;;;;1.70;1.60;;;16.80;99.90;;;;;;466800;254;29110;-70
2023/09/21 02:42:21;;;;;;;5.03;2.00;;;16.80;99.90;;;;;;467152;253;29054;-70
2023/09/21 02:44:23;;;;;;;2.40;2.10;;;16.70;99.90;;;;;;467167;253;29701;-72
2023/09/21 02:46:24;;;;;;;2.20;1.90;;;16.60;99.90;;;;;;467160;253;29279;-72
2023/09/21 02:48:25;;;;;;;3.40;2.20;;;16.60;99.90;;;;;;467142;253;29448;-70
2023/09/21 02:50:27;;;;;;;2.60;1.97;;;16.60;99.90;;;;;;467163;253;29573;-71
2023/09/21 02:52:28;;;;;;;2.20;1.60;;;16.60;99.90;;;;;;467134;253;28878;-70
2023/09/21 02:54:29;;;;;;;2.03;1.77;;;16.60;99.90;;;;;;467127;253;28877;-72
2023/09/21 02:56:30;;;;;;;3.93;1.60;;;16.60;99.90;;;;;;467166;253;28819;-70
2023/09/21 02:58:31;;;;;;;2.03;1.83;;;16.60;99.90;;;;;;467168;253;28864;-70
2023/09/21 03:00:39;;;;;;;2.37;1.50;;;16.60;99.90;;;;;;467190;253;28942;-70
2023/09/21 03:02:36;;;;;;;2.53;1.90;;;16.70;99.90;;;;;;466909;254;29421;-70
2023/09/21 03:04:38;;;;;;;1.97;1.87;;;16.80;99.90;;;;;;467146;253;29350;-71
2023/09/21 03:06:42;;;;;;;2.10;1.93;;;16.90;99.90;;;;;;467177;253;28859;-73
2023/09/21 03:08:41;;;;;;;1.90;1.77;;;17.00;99.90;;;;;;466950;254;28917;-71
2023/09/21 03:10:43;;;;;;;1.70;1.60;;;17.00;99.90;;;;;;467044;254;29074;-71
2023/09/21 03:12:43;;;;;;;3.00;1.90;;;17.10;99.90;;;;;;467033;254;28823;-70
2023/09/21 03:14:46;;;;;;;2.13;1.77;;;17.00;99.90;;;;;;467111;254;28986;-71
2023/09/21 03:16:47;;;;;;;1.83;1.60;;;17.00;99.90;;;;;;466961;254;29317;-71
2023/09/21 03:18:47;;;;;;;4.87;2.40;;;17.00;99.90;;;;;;466956;254;28881;-70
2023/09/21 03:20:48;;;;;;;2.70;1.97;;;17.10;99.90;;;;;;467132;254;28887;-71
2023/09/21 03:22:49;;;;;;;4.73;1.70;;;17.10;99.90;;;;;;467129;253;28850;-74
2023/09/21 03:24:54;;;;;;;1.90;1.80;;;17.10;99.90;;;;;;467140;254;29364;-71
2023/09/21 03:26:51;;;;;;;2.50;1.53;;;17.00;99.90;;;;;;466908;254;29457;-71
2023/09/21 03:28:53;;;;;;;1.60;1.50;;;17.10;99.90;;;;;;467162;253;29528;-71
2023/09/21 03:30:56;;;;;;;4.30;1.77;;;17.10;99.90;;;;;;467130;253;28981;-71
2023/09/21 03:32:55;;;;;;;2.73;1.60;;;17.20;99.90;;;;;;467066;254;28972;-73
2023/09/21 03:34:56;;;;;;;2.33;1.53;;;17.20;99.90;;;;;;467168;250;28866;-71
2023/09/21 03:36:59;;;;;;;1.70;1.60;;;17.20;99.90;;;;;;467154;253;28871;-71
2023/09/21 03:38:59;;;;;;;3.10;1.70;;;17.20;99.90;;;;;;467098;254;28918;-71
2023/09/21 03:41:00;;;;;;;2.37;1.60;;;17.10;99.90;;;;;;467151;253;28996;-71
2023/09/21 03:43:02;;;;;;;2.33;1.70;;;17.00;99.90;;;;;;467179;253;28882;-72
2023/09/21 03:45:03;;;;;;;1.50;1.40;;;17.00;99.90;;;;;;467143;253;28815;-71
2023/09/21 03:47:04;;;;;;;1.77;1.30;;;16.90;99.90;;;;;;467153;253;28887;-71
2023/09/21 03:49:05;;;;;;;3.77;1.80;;;16.90;99.90;;;;;;467140;253;30261;-71
2023/09/21 03:51:06;;;;;;;1.70;1.60;;;16.90;99.90;;;;;;467167;254;29349;-71
2023/09/21 03:53:11;;;;;;;1.50;1.40;;;17.00;99.90;;;;;;467139;253;29421;-72
2023/09/21 03:55:10;;;;;;;2.13;1.50;;;17.00;99.90;;;;;;466804;254;29400;-71
2023/09/21 03:57:11;;;;;;;1.50;1.40;;;17.00;99.90;;;;;;467100;254;28881;-71
2023/09/21 03:59:11;;;;;;;1.40;1.30;;;17.00;99.90;;;;;;467148;253;28995;-71
2023/09/21 04:01:13;;;;;;;2.67;1.43;;;17.00;99.90;;;;;;467178;253;28883;-71
2023/09/21 04:03:14;;;;;;;1.67;1.17;;;17.10;99.90;;;;;;467137;253;28948;-72
2023/09/21 04:05:21;;;;;;;2.30;1.50;;;17.10;99.90;;;;;;467136;250;28832;-71
2023/09/21 04:07:22;;;;;;;1.93;1.67;;;17.20;99.90;;;;;;467133;253;28933;-71
2023/09/21 04:09:24;;;;;;;2.20;1.50;;;17.10;99.90;;;;;;467153;254;28867;-73
2023/09/21 04:11:28;;;;;;;1.20;1.10;;;17.20;99.90;;;;;;467152;253;28815;-72
2023/09/21 04:13:26;;;;;;;1.80;1.40;;;17.10;99.90;;;;;;466971;254;28872;-71
2023/09/21 04:15:27;;;;;;;1.87;1.30;;;17.10;99.90;;;;;;467115;253;29390;-72
2023/09/21 04:17:30;;;;;;;1.50;1.40;;;16.90;99.90;;;;;;467151;253;29284;-71
2023/09/21 04:19:30;;;;;;;1.57;1.40;;;16.80;99.90;;;;;;467077;254;29366;-72
2023/09/21 04:21:32;;;;;;;1.50;1.40;;;16.80;99.90;;;;;;467157;253;28904;-71
2023/09/21 04:23:32;;;;;;;1.53;1.43;;;16.70;99.90;;;;;;467119;254;28900;-71
2023/09/21 04:25:34;;;;;;;1.67;1.57;;;16.70;99.90;;;;;;467135;253;28922;-71
2023/09/21 04:27:36;;;;;;;1.63;1.40;;;16.70;99.90;;;;;;467157;253;28853;-71
2023/09/21 04:29:36;;;;;;;1.50;1.40;;;16.80;99.90;;;;;;467116;254;28858;-72
2023/09/21 04:31:38;;;;;;;1.90;1.70;;;16.80;99.90;;;;;;467144;253;28904;-71
2023/09/21 04:33:39;;;;;;;1.70;1.60;;;16.70;99.90;;;;;;467081;254;28865;-71
2023/09/21 04:35:40;;;;;;;1.50;1.40;;;16.70;99.90;;;;;;467084;253;28886;-74
2023/09/21 04:37:41;;;;;;;1.30;1.20;;;16.70;99.90;;;;;;467144;253;28831;-71
2023/09/21 04:39:42;;;;;;;1.57;1.40;;;16.80;99.90;;;;;;467169;253;29359;-72
2023/09/21 04:41:44;;;;;;;1.67;1.57;;;16.80;99.90;;;;;;467173;253;29383;-72
2023/09/21 04:43:45;;;;;;;1.83;1.73;;;16.80;99.90;;;;;;467177;253;29449;-71
2023/09/21 04:45:46;;;;;;;2.30;1.40;;;16.80;99.90;;;;;;467196;253;29361;-74
2023/09/21 04:47:49;;;;;;;1.50;1.40;;;16.90;99.90;;;;;;467177;254;28921;-71
2023/09/21 04:49:49;;;;;;;1.77;1.30;;;16.90;99.90;;;;;;467094;249;28945;-72
2023/09/21 04:51:50;;;;;;;1.73;1.60;;;16.90;99.90;;;;;;467145;253;28818;-71
2023/09/21 04:53:51;;;;;;;2.20;1.60;;;16.90;99.90;;;;;;467171;253;28909;-71
2023/09/21 04:55:52;;;;;;;1.50;1.37;;;16.90;99.90;;;;;;467179;253;28870;-71
2023/09/21 04:57:55;;;;;;;1.73;1.50;;;16.90;99.90;;;;;;467169;253;29012;-70
2023/09/21 04:59:55;;;;;;;1.87;1.50;;;17.00;99.90;;;;;;467112;254;28889;-71
2023/09/21 05:01:56;;;;;;;1.47;1.37;;;17.00;99.90;;;;;;467129;253;28861;-71
2023/09/21 05:03:57;;;;;;;1.10;1.10;;;16.90;99.90;;;;;;467171;253;29233;-72
2023/09/21 05:05:59;;;;;;;2.80;1.70;;;16.90;99.90;;;;;;467129;254;29335;-72
2023/09/21 05:08:03;;;;;;;1.60;1.50;;;17.00;99.90;;;;;;467130;250;29307;-72
2023/09/21 05:10:02;;;;;;;6.17;1.50;;;16.90;99.90;;;;;;466978;254;29452;-72
2023/09/21 05:12:05;;;;;;;1.50;1.40;;;16.90;99.90;;;;;;467138;253;28982;-73
2023/09/21 05:14:05;;;;;;;1.80;1.70;;;16.90;99.90;;;;;;467035;254;28824;-71
2023/09/21 05:16:05;;;;;;;1.63;1.40;;;17.00;99.90;;;;;;467101;254;28982;-72
2023/09/21 05:18:07;;;;;;;1.40;1.30;;;17.10;99.90;;;;;;467104;254;28865;-71
2023/09/21 05:20:09;;;;;;;1.60;1.50;;;17.10;99.90;;;;;;467102;253;28862;-73
2023/09/21 05:22:09;;;;;;;1.70;1.60;;;17.20;99.90;;;;;;467040;253;29000;-73
2023/09/21 05:24:10;;;;;;;1.67;1.57;;;17.20;99.90;;;;;;467067;253;28918;-71
2023/09/21 05:26:11;;;;;;;2.20;1.57;;;17.20;99.90;;;;;;467082;253;28866;-71
2023/09/21 05:28:12;;;;;;;2.03;1.83;;;17.20;99.90;;;;;;467097;253;28918;-71
2023/09/21 05:30:15;;;;;;;1.57;1.47;;;17.20;99.90;;;;;;467138;253;29291;-71
2023/09/21 05:32:15;;;;;;;1.77;1.67;;;17.20;99.90;;;;;;467102;253;29423;-73
2023/09/21 05:34:16;;;;;;;1.80;1.70;;;17.20;99.90;;;;;;467110;253;29336;-71
2023/09/21 05:36:17;;;;;;;2.40;2.00;;;17.20;99.90;;;;;;467095;254;28874;-71
2023/09/21 05:38:19;;;;;;;2.27;1.80;;;17.20;99.90;;;;;;467143;253;28974;-71
2023/09/21 05:40:21;;;;;;;2.10;1.90;;;17.20;99.90;;;;;;467157;253;28883;-72
2023/09/21 05:42:23;;;;;;;1.83;1.47;;;17.20;99.90;;;;;;467093;254;28862;-71
2023/09/21 05:44:25;;;;;;;2.80;1.70;;;17.10;99.90;;;;;;467055;254;28811;-71
2023/09/21 05:46:24;;;;;;;2.30;1.90;;;17.00;99.90;;;;;;466986;254;28956;-71
2023/09/21 05:48:25;;;;;;;2.30;2.10;;;17.00;99.90;;;;;;467161;253;28890;-73
2023/09/21 05:50:26;;;;;;;1.80;1.70;;;17.00;99.90;;;;;;467125;253;28883;-71
2023/09/21 05:52:30;;;;;;;1.80;1.70;;;17.00;99.90;;;;;;467133;253;29055;-71
2023/09/21 05:54:29;;;;;;;1.67;1.57;;;17.00;99.90;;;;;;466964;254;29282;-71
2023/09/21 05:56:30;;;;;;;3.90;1.60;;;16.90;99.90;;;;;;467126;249;29300;-71
2023/09/21 05:58:32;;;;;;;3.60;1.90;;;16.90;99.90;;;;;;467151;253;29453;-72
2023/09/21 06:00:32;;;;;;;2.20;2.00;;;16.90;99.90;;;;;;467136;253;29303;-71
2023/09/21 06:02:34;;;;;;;1.67;1.57;;;16.90;99.90;;;;;;467152;253;28886;-70
2023/09/21 06:04:36;;;;;;;1.83;1.73;;;16.80;99.90;;;;;;466923;254;28878;-71
2023/09/21 06:06:37;;;;;;;2.93;1.90;;;16.80;99.90;;;;;;467080;254;28870;-71
2023/09/21 06:08:37;;;;;;;1.60;1.50;;;16.80;99.90;;;;;;467036;254;28993;-71
2023/09/21 06:10:39;;;;;;;1.70;1.60;;;16.70;99.90;;;;;;467140;253;28816;-71
2023/09/21 06:12:40;;;;;;;1.73;1.60;;;16.70;99.90;;;;;;467105;253;28863;-71
2023/09/21 06:14:41;;;;;;;1.93;1.73;;;16.70;99.90;;;;;;467162;253;29299;-73
2023/09/21 06:16:43;;;;;;;2.97;2.20;;;16.70;99.90;;;;;;467126;253;28826;-71
2023/09/21 06:18:44;;;;;;;5.67;1.80;;;16.70;99.90;;;;;;467123;253;29334;-71
2023/09/21 06:20:45;;;;;;;2.30;2.10;;;16.60;99.90;;;;;;467127;253;29400;-71
2023/09/21 06:22:46;;;;;;;3.60;2.07;;;16.70;99.90;;;;;;467144;253;29462;-72
2023/09/21 06:24:48;;;;;;;2.17;1.70;;;16.70;99.90;;;;;;467158;253;28888;-73
2023/09/21 06:26:49;;;;;;;3.57;2.30;;;16.70;99.90;;;;;;467123;254;28907;-72
2023/09/21 06:28:50;;;;;;;2.63;1.80;;;16.80;99.90;;;;;;467129;249;28996;-72
2023/09/21 06:30:52;;;;;;;3.80;1.80;;;16.90;99.90;;;;;;467130;254;28807;-72
2023/09/21 06:32:55;;;;;;;2.63;2.13;;;17.00;99.90;;;;;;467148;254;28841;-71
2023/09/21 06:34:55;;;;;;;1.90;1.80;;;17.10;99.90;;;;;;467021;254;28894;-72
2023/09/21 06:36:56;;;;;;;2.27;1.93;;;17.20;99.90;;;;;;467042;254;28925;-71
2023/09/21 06:39:00;;;;;;;1.80;1.70;;;17.20;99.90;;;;;;467102;249;29045;-71
2023/09/21 06:40:58;;;;;;;8.43;2.40;;;17.10;99.90;;;;;;466807;254;28862;-75
2023/09/21 06:43:00;;;;;;;1.57;1.40;;;17.10;99.90;;;;;;467120;253;29274;-73
2023/09/21 06:45:00;;;;;;;2.10;1.90;;;17.10;99.90;;;;;;467078;253;29337;-72
2023/09/21 06:47:01;;;;;;;2.90;1.90;;;17.10;99.90;;;;;;467109;253;29282;-71
2023/09/21 06:49:03;;;;;;;1.80;1.70;;;17.10;99.90;;;;;;467119;253;29448;-72
2023/09/21 06:51:13;;;;;;;4.00;1.73;;;17.10;99.90;;;;;;467109;254;28883;-73
2023/09/21 06:53:05;;;;;;;1.73;1.63;;;17.10;99.90;;;;;;466105;254;29016;-74
2023/09/21 06:55:06;;;;;;;1.50;1.40;;;17.10;99.90;;;;;;467134;253;28874;-72
2023/09/21 06:57:08;;;;;;;1.70;1.60;;;17.20;99.90;;;;;;467126;253;28833;-71
2023/09/21 06:59:09;;;;;;;2.00;1.80;;;17.20;99.90;;;;;;467141;253;28870;-73
2023/09/21 07:01:10;;;;;;;2.90;2.00;;;17.20;99.90;;;;;;467141;253;29360;-72
2023/09/21 07:03:12;;;;;;;1.93;1.43;;;17.20;99.90;;;;;;467142;253;29395;-71
2023/09/21 07:05:13;;;;;;;2.17;1.87;;;17.20;99.90;;;;;;467118;253;29448;-72
2023/09/21 07:07:15;;;;;;;1.67;1.57;;;17.20;99.90;;;;;;467147;253;30141;-71
2023/09/21 07:09:15;;;;;;;1.90;1.80;;;17.30;99.90;;;;;;467074;254;28878;-71
2023/09/21 07:11:19;;;;;;;1.67;1.57;;;17.30;99.90;;;;;;467151;253;28910;-72
2023/09/21 07:13:21;;;;;;;2.80;1.80;;;17.30;99.90;;;;;;467046;253;28819;-72
2023/09/21 07:15:23;;;;;;;1.73;1.63;;;17.40;99.90;;;;;;467130;253;29290;-73
2023/09/21 07:17:23;;;;;;;1.93;1.83;;;17.50;99.90;;;;;;467109;253;28958;-73
2023/09/21 07:19:24;;;;;;;2.00;1.80;;;17.50;99.90;;;;;;467154;253;28894;-73
2023/09/21 07:21:26;;;;;;;2.27;1.93;;;17.50;99.90;;;;;;467151;253;28914;-72
2023/09/21 07:23:27;;;;;;;2.80;1.80;;;17.50;99.90;;;;;;467125;254;28951;-74
2023/09/21 07:25:28;;;;;;;1.70;1.60;;;17.40;99.90;;;;;;467132;254;28815;-74
2023/09/21 07:27:29;;;;;;;4.30;1.80;;;17.40;99.90;;;;;;467137;254;28919;-73
2023/09/21 07:29:33;;;;;;;1.87;1.77;;;17.40;99.90;;;;;;467171;253;28967;-72
2023/09/21 07:31:33;;;;;;;1.80;1.70;;;17.40;99.90;;;;;;466912;254;28953;-72
2023/09/21 07:33:33;;;;;;;1.93;1.80;;;17.50;99.90;;;;;;467064;254;28867;-72
2023/09/21 07:35:34;;;;;;;1.83;1.73;;;17.50;99.90;;;;;;467140;253;29410;-75
2023/09/21 07:37:36;;;;;;;1.87;1.77;;;17.60;99.90;;;;;;467142;253;29391;-72
2023/09/21 07:39:37;;;;;;;2.03;1.90;;;17.60;99.90;;;;;;467150;253;29440;-72
2023/09/21 07:41:40;;;;;;;1.77;1.60;;;17.70;99.90;;;;;;467142;253;28818;-73
2023/09/21 07:43:40;;;;;;;2.50;1.83;;;17.80;99.90;;;;;;467025;254;28981;-73
2023/09/21 07:45:41;;;;;;;1.83;1.73;;;17.90;99.90;;;;;;467163;254;28866;-73
2023/09/21 07:47:42;;;;;;;1.87;1.73;;;18.00;99.90;;;;;;467162;254;28827;-74
2023/09/21 07:49:44;;;;;;;1.70;1.60;;;18.10;99.90;;;;;;467199;253;28926;-74
2023/09/21 07:51:44;;;;;;;1.77;1.67;;;18.20;99.90;;;;;;467129;253;28834;-73
2023/09/21 07:53:46;;;;;;;2.10;1.77;;;18.20;99.90;;;;;;467165;249;28942;-73
2023/09/21 07:55:47;;;;;;;2.60;2.20;;;18.30;99.90;;;;;;467189;253;28994;-73
2023/09/21 07:57:48;;;;;;;1.70;1.60;;;18.30;99.90;;;;;;467160;253;28914;-73
2023/09/21 07:59:49;;;;;;;1.97;1.83;;;18.30;99.90;;;;;;467182;253;29338;-73
2023/09/21 08:01:53;;;;;;;2.00;1.80;;;18.20;99.90;;;;;;467153;253;30170;-73
2023/09/21 08:03:52;;;;;;;1.70;1.60;;;18.20;99.90;;;;;;467091;253;29306;-74
2023/09/21 08:05:53;;;;;;;2.07;1.80;;;18.30;99.90;;;;;;467173;253;28982;-74
2023/09/21 08:07:54;;;;;;;2.30;1.70;;;18.40;99.90;;;;;;467175;253;28918;-72
2023/09/21 08:09:56;;;;;;;4.63;2.10;;;18.50;99.90;;;;;;467192;249;28866;-74
2023/09/21 08:11:57;;;;;;;2.00;1.90;;;18.60;99.90;;;;;;467194;253;28860;-74
2023/09/21 08:13:58;;;;;;;4.70;2.03;;;18.70;99.90;;;;;;467193;253;28924;-73
2023/09/21 08:15:59;;;;;;;3.13;2.27;;;18.70;99.90;;;;;;467164;253;28908;-74
2023/09/21 08:18:01;;;;;;;4.33;2.00;;;18.80;99.90;;;;;;467072;253;28837;-73
2023/09/21 08:20:04;;;;;;;1.90;1.80;;;18.90;99.90;;;;;;467105;253;28964;-74
2023/09/21 08:22:03;;;;;;;1.80;1.70;;;18.90;99.90;;;;;;467062;254;28974;-75
2023/09/21 08:24:04;;;;;;;2.60;1.90;;;19.00;99.90;;;;;;467144;253;29520;-74
2023/09/21 08:26:06;;;;;;;4.13;1.87;;;19.00;99.90;;;;;;467155;253;29383;-74
2023/09/21 08:28:07;;;;;;;1.80;1.70;;;19.00;99.90;;;;;;467128;253;29339;-73
2023/09/21 08:30:08;;;;;;;1.70;1.60;;;19.10;99.90;;;;;;467153;254;29390;-74
2023/09/21 08:32:10;;;;;;;1.70;1.60;;;19.10;99.90;;;;;;467153;253;28973;-74
2023/09/21 08:34:11;;;;;;;1.53;1.43;;;19.10;99.90;;;;;;467103;254;28861;-73
2023/09/21 08:36:15;;;;;;;1.90;1.80;;;19.20;99.90;;;;;;467130;253;28973;-73
2023/09/21 08:38:13;;;;;;;1.57;1.47;;;19.20;99.90;;;;;;466933;254;28857;-73
2023/09/21 08:40:15;;;;;;;4.50;1.73;;;19.30;99.90;;;;;;467157;253;28977;-73
2023/09/21 08:42:16;;;;;;;2.70;2.07;;;19.40;99.90;;;;;;467145;253;28903;-73
2023/09/21 08:44:17;;;;;;;1.80;1.70;;;19.60;99.90;;;;;;467121;254;28891;-73
2023/09/21 08:46:18;;;;;;;5.30;1.70;;;19.70;99.90;;;;;;467129;254;28905;-74
2023/09/21 08:48:20;;;;;;;2.53;1.70;;;19.80;99.90;;;;;;467159;253;29431;-75
2023/09/21 08:50:21;;;;;;;2.50;1.73;;;19.90;99.90;;;;;;467152;249;29413;-73
2023/09/21 08:52:22;;;;;;;2.10;1.70;;;19.90;99.90;;;;;;467137;253;29539;-73
2023/09/21 08:54:23;;;;;;;1.50;1.40;;;20.00;99.90;;;;;;467143;253;29403;-73
2023/09/21 08:56:24;;;;;;;2.20;1.57;;;20.10;99.90;;;;;;467134;253;28864;-73
2023/09/21 08:58:26;;;;;;;1.50;1.40;;;20.20;99.90;;;;;;467116;253;28992;-76
2023/09/21 09:00:28;;;;;;;1.30;1.20;;;20.20;99.90;;;;;;467123;254;28842;-73
2023/09/21 09:02:28;;;;;;;1.43;1.30;;;20.30;99.90;;;;;;467112;253;28868;-74
2023/09/21 09:04:29;;;;;;;2.10;1.40;;;20.30;99.90;;;;;;467128;254;28820;-73
2023/09/21 09:06:31;;;;;;;1.40;1.30;;;20.30;99.90;;;;;;467148;253;28839;-73
2023/09/21 09:08:32;;;;;;;1.33;1.23;;;20.30;99.90;;;;;;467157;249;28868;-73
2023/09/21 09:10:33;;;;;;;1.50;1.40;;;20.40;99.90;;;;;;467170;253;28833;-73
2023/09/21 09:12:34;;;;;;;2.07;1.67;;;20.40;99.90;;;;;;467128;253;28872;-73
2023/09/21 09:14:36;;;;;;;1.87;1.23;;;20.40;99.90;;;;;;467118;253;29814;-73
2023/09/21 09:16:37;;;;;;;1.30;1.20;;;20.40;99.90;;;;;;467146;253;29361;-73
2023/09/21 09:18:38;;;;;;;1.50;1.30;;;20.60;99.90;;;;;;467139;253;29381;-73
2023/09/21 09:20:39;;;;;;;2.33;1.50;;;20.60;99.90;;;;;;467160;253;29011;-73
2023/09/21 09:22:41;;;;;;;1.80;1.40;;;20.60;99.90;;;;;;467148;253;28933;-73
2023/09/21 09:24:42;;;;;;;2.10;1.30;;;20.60;99.90;;;;;;467134;254;28979;-74
2023/09/21 09:26:44;;;;;;;1.70;1.30;;;20.70;99.90;;;;;;467137;253;28918;-73
2023/09/21 09:28:44;;;;;;;1.43;1.33;;;20.70;99.90;;;;;;467145;254;28889;-73
2023/09/21 09:30:48;;;;;;;1.20;1.10;;;20.70;99.90;;;;;;467108;253;28915;-73
2023/09/21 09:32:47;;;;;;;1.70;1.60;;;20.70;99.90;;;;;;467007;254;28887;-73
2023/09/21 09:34:48;;;;;;;2.40;2.20;;;20.70;99.90;;;;;;467140;253;28871;-75
2023/09/21 09:36:52;;;;;;;2.77;1.77;;;20.70;99.90;;;;;;467137;253;29014;-73
2023/09/21 09:38:52;;;;;;;1.60;1.50;;;20.70;99.90;;;;;;467015;254;29347;-73
2023/09/21 09:40:52;;;;;;;2.07;1.30;;;20.70;99.90;;;;;;467047;253;30192;-73
2023/09/21 09:42:53;;;;;;;4.80;1.80;;;20.70;99.90;;;;;;467150;250;29453;-73
2023/09/21 09:44:58;;;;;;;2.13;1.50;;;20.60;99.90;;;;;;467150;253;28929;-74
2023/09/21 09:46:59;;;;;;;1.67;1.57;;;20.60;99.90;;;;;;466931;254;28949;-73
2023/09/21 09:49:01;;;;;;;1.83;1.40;;;20.60;99.90;;;;;;467123;253;28916;-73
2023/09/21 09:51:03;;;;;;;3.03;1.70;;;20.70;99.90;;;;;;467131;253;28854;-73
2023/09/21 09:53:02;;;;;;;1.73;1.37;;;20.80;99.90;;;;;;467055;254;28858;-75
2023/09/21 09:55:05;;;;;;;1.77;1.67;;;20.90;99.90;;;;;;467134;253;28932;-73
2023/09/21 09:57:11;;;;;;;1.67;1.40;;;20.90;99.90;;;;;;467078;254;28974;-73
2023/09/21 09:59:07;;;;;;;1.93;1.30;;;21.00;99.90;;;;;;466738;254;28842;-73
2023/09/21 10:01:08;;;;;;;1.97;1.40;;;21.20;99.90;;;;;;467125;253;28875;-73
2023/09/21 10:03:12;;;;;;;2.80;1.50;;;21.40;99.90;;;;;;467111;253;28961;-74
2023/09/21 10:05:13;;;;;;;1.57;1.43;;;21.40;99.90;;;;;;467139;253;28956;-74
2023/09/21 10:07:17;;;;;;;2.57;1.47;;;21.30;99.90;;;;;;467133;254;28821;-73
2023/09/21 10:09:15;;;;;;;2.80;1.43;;;21.20;99.90;;;;;;466996;254;28872;-73
2023/09/21 10:11:17;;;;;;;1.40;1.30;;;21.20;99.90;;;;;;467120;253;29326;-75
2023/09/21 10:13:18;;;;;;;1.40;1.27;;;21.10;99.90;;;;;;467159;253;28863;-73
2023/09/21 10:15:22;;;;;;;1.60;1.50;;;21.20;99.90;;;;;;467110;253;28861;-73
2023/09/21 10:17:23;;;;;;;3.17;1.50;;;21.30;99.90;;;;;;466950;254;28819;-72
2023/09/21 10:19:22;;;;;;;1.20;1.10;;;21.40;99.90;;;;;;467021;254;29308;-73
2023/09/21 10:21:23;;;;;;;1.50;1.40;;;21.40;99.90;;;;;;467151;253;29345;-75
2023/09/21 10:23:24;;;;;;;2.10;1.40;;;21.50;99.90;;;;;;467153;253;29393;-73
2023/09/21 10:25:25;;;;;;;2.10;1.30;;;21.50;99.90;;;;;;467071;253;28884;-73
2023/09/21 10:27:27;;;;;;;1.50;1.40;;;21.50;99.90;;;;;;467008;253;28921;-73
2023/09/21 10:29:32;;;;;;;3.60;1.70;;;21.60;99.90;;;;;;467009;253;28884;-73
2023/09/21 10:31:33;;;;;;;2.97;1.57;;;21.80;99.90;;;;;;467055;254;28896;-73